Aérodrome :
LOGIN :

S'inscrire | Disclaimer

   EN    FR    IT 

 










Légende :    VFR   VFR Marginal   IFR   IFR Intensif   IFR Très Intensif
Visi : 
Plafond : 
>= 8 km
>= 3000ft
5 à 8 km
1000 à 3000 ft
1500m à 5 km
500 à 1000 ft
800 à 1500m
200 à 500 ft
< 800m
< 200 ft
Symboles :   Orages  Brouillard  Fortes neiges  Fortes précipitations  Vent > 20 kt
SIGMETs :   Divers  Orages  Givrage  Turbulence  Onde Orograph.  Cendres Volcan.






- Altitude de l'aérodrome : 84 ft


LFBC - Cazaux

DERNIER METAR :
  • 141230Z AUTO 27008KT 220V320 9999 FEW032 SCT120 BKN210 24/14 Q1019

METARs EXPIRÉS :
  • 141200Z AUTO 27006KT 230V310 9999 FEW029 SCT120 BKN210 23/15 Q1019
  • 141130Z AUTO 27008KT 220V310 9999 SCT028 SCT120 BKN220 23/14 Q1020
  • 141100Z AUTO 27008KT 220V300 9999 FEW027 BKN220 23/15 Q1020
  • 141030Z AUTO 24007KT 210V280 CAVOK 22/15 Q1020
  • 141000Z AUTO 26007KT 230V290 CAVOK 21/14 Q1020 NOSIG

TAF TAF LFBC
Valide du 14 à 09h jusqu'au 15 à 09h UTC


140800Z 1409/1509 26008KT CAVOK
BECMG 1419/1421 BKN010
BECMG 1501/1503 SCT015



MET'MAP, la Météo Aéronautique d'un coup d'oeil ! - Copyright ORBIFLY Décembre 2007 - Disclaimer

ORBIFLY MET'MAP TEAM :

Programmation & Développement : Alexandra Zaïnal
Sur une idée originale de : Baudouin d'Aumeries
Assistance à la programmation : Marc-Olivier Méhu
Soutien technique & logistique : Manuel Goepfert

Contact : metmap@orbifly.com




SOURCES & CREDITS :

   NOAA